Time;durP1;ratioP1;P1;durP2;ratioP2;P2;SDS_P1;SDS_P2;PMS_P1;PMS_P2;Temp;Humidity;BMP_temperature;BMP_pressure;BME280_temperature;BME280_humidity;BME280_pressure;Samples;Min_cycle;Max_cycle;Signal;HPM_P1;HPM_P2
2023/01/31 09:02:25;;;;;;;37.50;18.37;;;;;;;1.66;89.93;99388.81;1680714;83;940396;-75
2023/01/31 09:04:55;;;;;;;38.70;18.70;;;;;;;1.69;90.02;99396.08;1695026;84;21179;-71
2023/01/31 09:07:24;;;;;;;45.90;20.80;;;;;;;1.73;90.05;99396.59;1695058;85;21571;-67
2023/01/31 09:09:54;;;;;;;36.77;17.40;;;;;;;1.77;90.09;99385.80;1634528;87;21149;-67
2023/01/31 09:12:23;;;;;;;42.55;18.98;;;;;;;1.79;90.06;99387.83;1634781;88;21125;-65
2023/01/31 09:14:53;;;;;;;44.85;19.80;;;;;;;1.80;89.97;99394.41;1634536;88;21188;-75
2023/01/31 09:17:22;;;;;;;39.80;19.75;;;;;;;1.80;89.82;99392.21;1634529;88;21156;-72
2023/01/31 09:19:51;;;;;;;34.40;16.80;;;;;;;1.79;89.90;99399.47;1634633;88;21641;-67
2023/01/31 09:22:21;;;;;;;39.98;19.32;;;;;;;1.81;90.18;99394.75;1634900;88;21157;-67
2023/01/31 09:24:50;;;;;;;40.33;17.27;;;;;;;1.90;90.57;99384.30;1634506;87;21157;-66
2023/01/31 09:27:18;;;;;;;37.73;18.30;;;;;;;1.94;90.40;99391.55;1643053;85;21652;-65
2023/01/31 09:29:48;;;;;;;32.30;16.45;;;;;;;1.96;90.16;99392.77;1695996;84;21297;-68
2023/01/31 09:32:18;;;;;;;38.33;19.52;;;;;;;1.97;90.06;99390.41;1701027;84;21166;-69
2023/01/31 09:34:50;;;;;;;35.85;17.77;;;;;;;1.98;90.09;99386.19;1701609;84;21585;-67
2023/01/31 09:37:19;;;;;;;37.15;18.57;;;;;;;1.98;89.85;99383.99;1672376;84;21122;-72
2023/01/31 09:39:48;;;;;;;44.88;19.05;;;;;;;1.96;89.87;99386.86;1701418;84;21788;-70
2023/01/31 09:42:24;;;;;;;39.35;18.80;;;;;;;1.99;89.82;99382.98;1701860;84;21230;-69
2023/01/31 09:45:04;;;;;;;34.15;17.07;;;;;;;1.99;89.67;99387.88;1701727;84;21201;-63
2023/01/31 09:47:38;;;;;;;38.70;17.70;;;;;;;2.02;89.67;99383.48;1701431;84;21612;-62
2023/01/31 09:50:35;;;;;;;36.20;17.60;;;;;;;2.02;89.59;99388.89;1701590;84;21346;-66
2023/01/31 09:53:14;;;;;;;35.35;17.60;;;;;;;2.05;89.58;99393.96;1701554;84;21150;-62
2023/01/31 09:56:06;;;;;;;35.90;17.07;;;;;;;2.09;90.10;99387.20;1701521;84;21218;-65
2023/01/31 09:59:15;;;;;;;36.63;17.57;;;;;;;2.29;90.19;99383.66;1829585;77;22160;-64
2023/01/31 10:02:04;;;;;;;30.68;16.30;;;;;;;2.22;89.81;99397.00;1788336;80;21146;-69
2023/01/31 10:04:51;;;;;;;35.35;17.07;;;;;;;2.22;89.67;99388.89;1787879;80;21151;-68
2023/01/31 10:07:30;;;;;;;28.87;13.98;;;;;;;2.26;89.47;99396.66;1788779;80;21522;-66
2023/01/31 10:10:37;;;;;;;34.20;17.57;;;;;;;2.27;89.29;99387.03;1788367;80;21143;-64
2023/01/31 10:13:30;;;;;;;34.35;16.32;;;;;;;2.28;89.15;99381.97;1769098;80;21115;-63
2023/01/31 10:16:34;;;;;;;34.98;16.55;;;;;;;2.29;89.01;99386.86;1788659;80;21122;-69
2023/01/31 10:19:07;;;;;;;34.58;16.52;;;;;;;2.29;88.89;99394.47;1788451;80;21197;-70
2023/01/31 10:21:45;;;;;;;32.75;16.82;;;;;;;2.34;88.76;99391.25;1788492;80;21107;-68
2023/01/31 10:24:39;;;;;;;34.78;17.62;;;;;;;2.32;88.62;99397.34;1788405;79;21090;-67
2023/01/31 10:27:41;;;;;;;35.68;17.92;;;;;;;2.28;88.11;99383.31;1788320;80;21495;-70
2023/01/31 10:30:16;;;;;;;32.50;16.60;;;;;;;2.26;88.06;99392.61;1787526;80;21151;-65
2023/01/31 10:33:06;;;;;;;34.85;17.45;;;;;;;2.28;88.20;99390.58;1788581;80;21530;-64
2023/01/31 10:35:40;;;;;;;34.90;16.80;;;;;;;2.31;88.15;99384.84;1788219;80;21154;-63
2023/01/31 10:38:24;;;;;;;34.60;18.35;;;;;;;2.35;88.27;99388.38;1768983;80;21112;-63
2023/01/31 10:41:14;;;;;;;34.83;17.25;;;;;;;2.39;88.20;99386.19;1788496;80;21197;-67
2023/01/31 10:43:54;;;;;;;38.23;17.52;;;;;;;2.43;88.17;99378.06;1788494;80;21142;-63
2023/01/31 10:46:23;;;;;;;35.08;17.23;;;;;;;2.45;88.26;99378.23;1788285;79;21139;-66
2023/01/31 10:48:52;;;;;;;29.85;15.83;;;;;;;2.49;88.21;99376.03;1788446;80;21546;-66
2023/01/31 10:51:44;;;;;;;30.77;15.75;;;;;;;2.50;87.96;99381.27;1788450;80;21200;-66
2023/01/31 10:54:23;;;;;;;32.70;16.60;;;;;;;2.50;87.66;99379.92;1788425;80;21533;-67
2023/01/31 10:56:51;;;;;;;;;;;;;;;2.52;87.68;99386.50;1782959;80;21169;-68
2023/01/31 10:59:32;;;;;;;36.30;17.60;;;;;;;2.51;87.59;99375.36;1775072;80;20170;-67
2023/01/31 11:02:01;;;;;;;33.85;16.00;;;;;;;2.53;87.67;99374.16;1774942;81;21135;-67
2023/01/31 11:04:42;;;;;;;32.35;16.90;;;;;;;2.55;87.66;99372.64;1775151;81;21099;-67
2023/01/31 11:07:12;;;;;;;33.15;15.90;;;;;;;2.60;87.73;99376.19;1775013;81;21719;-65
2023/01/31 11:09:53;;;;;;;31.40;15.75;;;;;;;2.64;87.65;99381.11;1764056;81;21179;-65
2023/01/31 11:12:23;;;;;;;29.82;15.85;;;;;;;2.65;87.60;99377.89;1774461;81;21116;-66
2023/01/31 11:15:15;;;;;;;27.80;15.93;;;;;;;2.66;87.58;99375.02;1773424;80;21171;-64
2023/01/31 11:17:45;;;;;;;29.77;15.98;;;;;;;2.67;87.53;99371.30;1774468;81;21177;-65
2023/01/31 11:20:33;;;;;;;36.03;17.73;;;;;;;2.65;87.20;99376.03;1774287;81;21110;-69
2023/01/31 11:23:04;;;;;;;35.95;16.82;;;;;;;2.63;87.22;99372.66;1774574;81;21186;-69
2023/01/31 11:25:33;;;;;;;39.15;18.55;;;;;;;2.65;87.32;99373.33;1774164;81;21143;-67
2023/01/31 11:28:06;;;;;;;31.75;16.02;;;;;;;2.66;87.33;99375.53;1774307;81;21604;-65
2023/01/31 11:30:39;;;;;;;32.40;16.25;;;;;;;2.66;87.21;99372.83;1773758;80;21100;-67
2023/01/31 11:33:13;;;;;;;30.85;17.02;;;;;;;2.62;87.07;99368.27;1774498;81;21539;-66
2023/01/31 11:35:42;;;;;;;34.10;17.75;;;;;;;2.57;87.14;99373.31;1773025;81;21134;-66
2023/01/31 11:38:21;;;;;;;32.78;16.60;;;;;;;2.55;87.15;99375.34;1720375;81;21625;-68
2023/01/31 11:40:51;;;;;;;28.23;14.70;;;;;;;2.54;87.28;99379.06;1774477;81;21135;-70
2023/01/31 11:43:23;;;;;;;31.30;16.02;;;;;;;2.55;87.13;99380.75;1774212;81;21108;-68
2023/01/31 11:46:01;;;;;;;32.42;16.93;;;;;;;2.51;87.06;99386.17;1774238;81;21163;-68
2023/01/31 11:48:42;;;;;;;33.08;16.67;;;;;;;2.49;87.29;99382.80;1774369;81;21121;-68
2023/01/31 11:51:16;;;;;;;31.45;16.60;;;;;;;2.47;87.24;99384.31;1774205;79;21116;-70
2023/01/31 11:53:48;;;;;;;36.23;17.52;;;;;;;2.44;87.41;99381.95;1770698;80;21178;-67
2023/01/31 11:56:26;;;;;;;31.90;16.65;;;;;;;2.45;87.62;99378.74;1774287;81;21151;-68
2023/01/31 11:58:57;;;;;;;31.07;16.62;;;;;;;2.45;87.61;99379.59;1774328;80;21110;-68
2023/01/31 12:01:26;;;;;;;29.95;16.15;;;;;;;2.43;87.62;99369.96;1773936;79;21147;-71
2023/01/31 12:03:58;;;;;;;32.83;16.85;;;;;;;2.44;87.71;99377.05;1774588;81;21163;-71
2023/01/31 12:06:36;;;;;;;30.85;17.00;;;;;;;2.46;87.90;99376.37;1774326;80;21071;-70
2023/01/31 12:09:22;;;;;;;28.90;16.05;;;;;;;2.47;88.04;99376.71;1774340;81;21119;-68
2023/01/31 12:12:05;;;;;;;29.05;15.85;;;;;;;2.48;88.06;99370.29;1774112;81;21131;-69
2023/01/31 12:14:40;;;;;;;31.70;16.62;;;;;;;2.49;88.03;99366.57;1774318;80;21159;-71
2023/01/31 12:17:12;;;;;;;34.85;16.77;;;;;;;2.50;88.13;99377.21;1758647;81;21539;-68
2023/01/31 12:20:06;;;;;;;31.95;17.35;;;;;;;2.52;88.25;99380.59;1735526;81;21155;-69
2023/01/31 12:22:47;;;;;;;34.83;17.37;;;;;;;2.54;88.22;99388.02;1742477;80;21153;-68
2023/01/31 12:25:52;;;;;;;33.10;16.60;;;;;;;2.58;88.25;99376.86;1767023;79;21100;-66
2023/01/31 12:28:38;;;;;;;33.33;17.48;;;;;;;2.58;88.30;99379.56;1774323;81;21575;-67
2023/01/31 12:31:30;;;;;;;34.25;18.02;;;;;;;2.58;88.29;99386.33;1774337;81;21154;-68
2023/01/31 12:34:20;;;;;;;32.48;16.52;;;;;;;2.57;88.29;99380.08;1762475;81;21270;-66
2023/01/31 12:37:20;;;;;;;31.17;15.83;;;;;;;2.61;88.34;99388.21;1772727;81;21155;-67
2023/01/31 12:40:34;;;;;;;28.35;15.63;;;;;;;2.61;88.27;99392.27;1772633;81;21590;-69
2023/01/31 12:43:05;;;;;;;31.73;16.87;;;;;;;2.61;88.23;99397.67;1772703;81;21154;-68
2023/01/31 12:45:51;;;;;;;30.60;16.15;;;;;;;2.63;88.18;99394.80;1772080;81;21561;-67
2023/01/31 12:48:48;;;;;;;31.30;16.20;;;;;;;2.59;87.98;99393.42;1772253;81;21175;-69
2023/01/31 12:51:37;;;;;;;33.47;17.33;;;;;;;2.59;87.99;99400.19;1683388;84;21568;-68
2023/01/31 12:54:26;;;;;;;33.45;15.65;;;;;;;2.62;88.03;99399.37;1759154;80;21114;-67
2023/01/31 12:57:12;;;;;;;35.28;17.27;;;;;;;2.65;88.04;99392.77;1759136;80;21110;-68
2023/01/31 13:00:02;;;;;;;32.98;17.02;;;;;;;2.65;88.10;99389.56;1758784;80;21513;-67
2023/01/31 13:02:42;;;;;;;30.62;15.93;;;;;;;2.67;88.14;99394.28;1759097;80;21618;-66
2023/01/31 13:05:42;;;;;;;32.70;17.00;;;;;;;2.67;88.21;99393.44;1759120;80;21126;-66
2023/01/31 13:08:20;;;;;;;35.03;16.65;;;;;;;2.69;88.23;99392.77;1759487;80;21107;-65
2023/01/31 15:55:24;;;;;;;43.60;19.48;;;;;;;1.99;92.07;99494.58;1727630;82;21198;-64
2023/01/31 15:57:56;;;;;;;35.50;17.73;;;;;;;2.03;92.08;99490.53;1727534;83;21103;-64
2023/01/31 16:00:35;;;;;;;36.98;17.23;;;;;;;2.06;92.09;99490.20;1726540;82;21942;-64
2023/01/31 16:03:11;;;;;;;35.78;17.50;;;;;;;2.10;92.08;99497.47;1722564;82;21152;-63
2023/01/31 16:05:49;;;;;;;29.57;14.35;;;;;;;2.14;92.11;99499.67;1725098;83;21532;-62
2023/01/31 16:08:28;;;;;;;27.93;14.15;;;;;;;2.19;92.07;99492.42;1727508;82;21143;-64
2023/01/31 16:10:56;;;;;;;28.60;14.28;;;;;;;2.22;92.04;99491.58;1723857;83;21523;-63
2023/01/31 16:13:26;;;;;;;29.42;16.15;;;;;;;2.27;92.11;99488.38;1723875;82;21132;-63
2023/01/31 16:15:55;;;;;;;29.65;15.93;;;;;;;2.31;92.00;99492.44;1723895;82;21136;-63
2023/01/31 16:18:24;;;;;;;33.58;15.65;;;;;;;2.33;91.98;99493.62;1726581;83;21167;-62
2023/01/31 16:20:54;;;;;;;30.12;15.45;;;;;;;2.34;91.98;99493.96;1727544;83;21167;-64
2023/01/31 16:23:33;;;;;;;31.48;15.78;;;;;;;2.38;92.07;99496.67;1701061;82;21148;-63
2023/01/31 16:26:23;;;;;;;31.12;15.38;;;;;;;2.41;91.97;99497.17;1727382;83;21619;-63
2023/01/31 16:29:00;;;;;;;26.27;14.38;;;;;;;2.42;91.97;99498.87;1727512;83;21559;-63
2023/01/31 16:31:32;;;;;;;27.52;14.75;;;;;;;2.44;91.91;99494.64;1727281;83;21605;-64
2023/01/31 16:34:05;;;;;;;29.60;15.75;;;;;;;2.44;91.94;99496.00;1727263;83;21132;-62
2023/01/31 16:36:53;;;;;;;27.17;14.25;;;;;;;2.45;91.90;99494.98;1723798;82;21563;-63
2023/01/31 16:39:36;;;;;;;21.53;11.37;;;;;;;2.46;91.90;99498.87;1720056;83;21215;-61
2023/01/31 16:42:10;;;;;;;26.55;14.47;;;;;;;2.50;92.24;99503.44;1696856;83;21170;-64
2023/01/31 16:44:41;;;;;;;25.30;13.35;;;;;;;2.57;92.30;99501.75;1721862;83;21128;-63
2023/01/31 16:47:46;;;;;;;26.77;14.03;;;;;;;2.56;92.09;99504.12;1697248;83;21168;-64
2023/01/31 16:50:26;;;;;;;28.70;14.00;;;;;;;2.54;92.05;99502.08;1723490;82;21108;-62
2023/01/31 16:53:31;;;;;;;26.02;13.75;;;;;;;2.50;91.88;99504.28;1723324;82;21587;-64
2023/01/31 16:56:20;;;;;;;25.62;12.95;;;;;;;2.51;92.15;99507.83;1708573;83;21584;-62
2023/01/31 16:58:56;;;;;;;23.55;12.80;;;;;;;2.53;92.10;99510.70;1723746;83;21132;-63
2023/01/31 17:01:32;;;;;;;25.70;13.28;;;;;;;2.51;92.01;99509.19;1697188;83;21191;-63
2023/01/31 17:04:12;;;;;;;27.13;13.25;;;;;;;2.51;92.02;99518.64;1697257;83;21219;-62
2023/01/31 17:06:42;;;;;;;23.05;12.28;;;;;;;2.49;92.01;99508.50;1723611;83;21571;-63
2023/01/31 17:09:17;;;;;;;23.10;12.53;;;;;;;2.47;91.91;99514.59;1723603;83;21571;-62
2023/01/31 17:11:47;;;;;;;22.52;12.23;;;;;;;2.46;91.90;99519.66;1723676;83;21196;-63
2023/01/31 17:14:18;;;;;;;26.65;12.23;;;;;;;2.46;91.89;99514.25;1723524;82;21593;-62
2023/01/31 17:16:52;;;;;;;23.20;13.70;;;;;;;2.45;91.91;99516.61;1723527;82;21128;-63
2023/01/31 17:19:21;;;;;;;26.52;13.85;;;;;;;2.44;91.98;99510.36;1723374;82;21123;-62
2023/01/31 17:21:53;;;;;;;24.43;12.65;;;;;;;2.45;92.01;99520.16;1723314;82;21140;-63
2023/01/31 17:24:22;;;;;;;23.80;10.80;;;;;;;2.45;91.99;99519.31;1723434;82;21132;-62
2023/01/31 17:26:54;;;;;;;22.37;11.20;;;;;;;2.45;92.05;99520.16;1723513;83;21586;-62
2023/01/31 17:29:24;;;;;;;18.85;11.03;;;;;;;2.45;92.01;99527.42;1696959;83;21132;-61
2023/01/31 17:31:54;;;;;;;22.82;12.00;;;;;;;2.45;92.09;99523.38;1696580;83;21574;-62
2023/01/31 17:34:24;;;;;;;23.05;12.00;;;;;;;2.42;92.13;99529.95;1723285;83;21127;-64
2023/01/31 17:36:54;;;;;;;20.80;11.15;;;;;;;2.42;92.27;99531.81;1723698;82;21163;-63
2023/01/31 17:39:23;;;;;;;20.75;11.15;;;;;;;2.42;92.33;99533.17;1723343;83;21155;-64
2023/01/31 17:41:58;;;;;;;24.20;11.43;;;;;;;2.39;92.28;99537.05;1723503;83;21669;-63
2023/01/31 17:44:27;;;;;;;21.25;11.60;;;;;;;2.29;92.24;99533.66;1723419;82;21167;-62
2023/01/31 17:46:57;;;;;;;23.52;12.53;;;;;;;2.27;92.39;99530.78;1723549;82;21618;-63
2023/01/31 17:49:27;;;;;;;25.75;12.40;;;;;;;2.22;92.47;99532.62;1605179;88;21304;-63
2023/01/31 17:51:58;;;;;;;26.93;12.05;;;;;;;2.19;92.63;99528.40;1605310;89;21624;-61
2023/01/31 17:54:28;;;;;;;22.30;11.55;;;;;;;2.20;92.79;99527.89;1585516;89;21193;-61
2023/01/31 17:56:57;;;;;;;21.70;12.00;;;;;;;2.19;92.83;99524.84;1534617;92;21220;-62
2023/01/31 17:59:27;;;;;;;22.25;11.25;;;;;;;2.18;92.95;99519.95;1534780;93;21724;-62
2023/01/31 18:01:56;;;;;;;22.32;12.58;;;;;;;2.16;93.06;99513.87;1534733;92;21205;-61
2023/01/31 18:04:26;;;;;;;26.33;13.15;;;;;;;2.13;93.16;99518.76;1534737;93;21292;-62
2023/01/31 18:06:56;;;;;;;24.60;12.45;;;;;;;2.10;93.31;99528.04;1556567;88;21284;-63
2023/01/31 18:09:26;;;;;;;23.35;12.80;;;;;;;2.10;93.52;99524.49;1642990;87;21164;-61
2023/01/31 18:11:55;;;;;;;21.27;12.47;;;;;;;2.12;93.66;99523.82;1643500;87;21301;-62
2023/01/31 18:14:25;;;;;;;21.57;11.83;;;;;;;2.14;93.77;99528.55;1662362;83;21128;-64
2023/01/31 18:16:55;;;;;;;20.60;11.48;;;;;;;2.16;93.92;99529.23;1733625;83;21174;-62
2023/01/31 18:19:27;;;;;;;22.50;12.60;;;;;;;2.16;93.99;99523.33;1721059;83;21274;-62
2023/01/31 18:21:57;;;;;;;21.82;12.37;;;;;;;2.17;94.17;99525.02;1733639;83;21620;-62
2023/01/31 18:24:26;;;;;;;22.93;12.50;;;;;;;2.18;94.29;99537.52;1721082;82;21223;-61
2023/01/31 18:26:56;;;;;;;27.40;13.90;;;;;;;2.19;94.34;99528.40;1734112;83;21171;-62
2023/01/31 18:29:26;;;;;;;20.95;11.90;;;;;;;2.20;94.35;99538.70;1721009;82;21349;-62
2023/01/31 18:31:56;;;;;;;24.82;12.60;;;;;;;2.21;94.34;99533.64;1742460;82;21191;-61
2023/01/31 18:34:29;;;;;;;21.07;11.57;;;;;;;2.19;94.41;99541.91;1752728;81;21220;-62
2023/01/31 18:36:59;;;;;;;20.05;10.60;;;;;;;2.19;94.51;99535.16;1731108;83;21180;-61
2023/01/31 18:39:29;;;;;;;21.93;10.80;;;;;;;2.18;94.46;99540.72;1720977;83;21559;-61
2023/01/31 18:41:59;;;;;;;20.48;10.65;;;;;;;2.17;94.50;99535.83;1721012;83;21172;-62
2023/01/31 18:44:28;;;;;;;24.92;11.85;;;;;;;2.18;94.57;99536.67;1720812;83;21160;-63
2023/01/31 18:46:57;;;;;;;25.80;11.55;;;;;;;2.18;94.58;99538.87;1733537;81;21179;-62
2023/01/31 18:49:27;;;;;;;20.50;10.88;;;;;;;2.19;94.62;99536.50;1743228;81;21571;-62
2023/01/31 18:51:58;;;;;;;19.52;11.20;;;;;;;2.18;94.50;99532.11;1720952;83;21584;-62
2023/01/31 18:54:29;;;;;;;20.27;10.25;;;;;;;2.18;94.54;99538.02;1731592;81;21171;-62
2023/01/31 18:56:59;;;;;;;21.62;10.58;;;;;;;2.17;94.65;99534.47;1696249;84;21226;-62
2023/01/31 18:59:28;;;;;;;24.55;10.90;;;;;;;2.20;94.69;99541.41;1696102;84;21168;-61
2023/01/31 19:01:57;;;;;;;21.48;10.32;;;;;;;2.21;94.69;99537.19;1696042;84;21215;-61
2023/01/31 19:04:29;;;;;;;21.85;10.08;;;;;;;2.22;94.73;99543.44;1696121;84;21171;-64
2023/01/31 19:06:59;;;;;;;20.23;9.83;;;;;;;2.22;94.73;99540.23;1696227;83;21164;-62
2023/01/31 19:09:28;;;;;;;16.95;8.53;;;;;;;2.24;94.69;99553.58;1696255;84;21140;-61
2023/01/31 19:12:00;;;;;;;15.25;8.38;;;;;;;2.23;94.66;99541.92;1696282;83;21622;-62
2023/01/31 19:14:30;;;;;;;18.10;9.68;;;;;;;2.21;94.58;99539.89;1696107;83;21219;-62
2023/01/31 19:16:59;;;;;;;22.42;10.08;;;;;;;2.21;94.53;99543.09;1727440;83;21141;-63
2023/01/31 19:19:29;;;;;;;17.42;9.88;;;;;;;2.21;94.52;99542.59;1696213;84;21160;-62
2023/01/31 19:21:57;;;;;;;21.07;9.70;;;;;;;2.21;94.50;99549.34;1696351;84;21211;-63
2023/01/31 19:24:27;;;;;;;20.85;9.50;;;;;;;2.22;94.50;99545.63;1727459;81;21219;-62
2023/01/31 19:26:58;;;;;;;18.92;9.53;;;;;;;2.25;94.45;99553.06;1676323;84;21174;-62
2023/01/31 19:29:28;;;;;;;17.30;9.65;;;;;;;2.22;94.43;99553.73;1693421;83;21168;-63
2023/01/31 19:31:58;;;;;;;19.20;10.82;;;;;;;2.23;94.42;99550.53;1657463;86;21160;-60
2023/01/31 19:34:27;;;;;;;21.33;10.45;;;;;;;2.19;94.35;99550.02;1676248;85;21169;-61
2023/01/31 19:36:58;;;;;;;16.97;9.45;;;;;;;2.17;94.36;99552.04;1693446;85;21201;-61
2023/01/31 19:39:28;;;;;;;22.22;10.25;;;;;;;2.16;94.39;99553.05;1657549;85;21219;-63
2023/01/31 19:41:58;;;;;;;19.42;9.83;;;;;;;2.14;94.37;99544.77;1676521;85;21181;-61
2023/01/31 19:44:27;;;;;;;20.05;9.88;;;;;;;2.09;94.32;99550.66;1700032;83;21163;-61
2023/01/31 19:46:57;;;;;;;17.12;9.48;;;;;;;2.09;94.42;99553.88;1696005;83;21625;-62
2023/01/31 19:49:29;;;;;;;19.62;9.28;;;;;;;2.08;94.45;99550.33;1695937;84;21402;-61
2023/01/31 19:51:59;;;;;;;22.40;9.70;;;;;;;2.09;94.44;99557.92;1606425;88;21228;-62
2023/01/31 19:54:29;;;;;;;17.75;9.73;;;;;;;2.08;94.54;99550.83;1606783;88;21209;-63
2023/01/31 19:56:57;;;;;;;17.12;9.25;;;;;;;2.07;94.52;99547.78;1626422;88;21184;-63
2023/01/31 19:59:27;;;;;;;19.02;9.58;;;;;;;2.07;94.53;99555.38;1606403;88;21196;-62
2023/01/31 20:01:57;;;;;;;21.85;9.80;;;;;;;2.09;94.52;99560.63;1626548;87;21216;-62
2023/01/31 20:04:31;;;;;;;19.32;8.60;;;;;;;2.10;94.49;99561.81;1627898;87;21567;-62
2023/01/31 20:06:59;;;;;;;15.55;8.10;;;;;;;2.09;94.32;99561.98;1626345;88;21160;-62
2023/01/31 20:09:30;;;;;;;15.95;8.00;;;;;;;2.06;94.22;99557.75;1629266;84;21183;-62
2023/01/31 20:12:01;;;;;;;20.23;7.97;;;;;;;2.04;94.16;99554.87;1720989;83;21168;-61
2023/01/31 20:14:31;;;;;;;16.67;8.00;;;;;;;2.03;94.18;99554.52;1740621;81;21172;-62
2023/01/31 20:17:00;;;;;;;13.10;7.65;;;;;;;2.03;94.16;99551.83;1698588;83;21128;-63
2023/01/31 20:19:31;;;;;;;15.23;8.20;;;;;;;2.04;94.09;99552.17;1720720;83;21134;-62
2023/01/31 20:22:00;;;;;;;12.85;7.87;;;;;;;2.01;94.03;99553.34;1698591;83;21539;-62
2023/01/31 20:24:30;;;;;;;15.72;8.45;;;;;;;2.01;94.08;99560.59;1720900;83;21224;-61
2023/01/31 20:27:00;;;;;;;13.45;7.47;;;;;;;2.01;94.13;99557.39;1698756;84;21140;-62
2023/01/31 20:29:30;;;;;;;16.75;7.53;;;;;;;2.01;94.06;99557.89;1720757;82;21136;-62
2023/01/31 20:32:00;;;;;;;16.12;7.12;;;;;;;1.99;93.90;99560.77;1698610;84;21686;-62
2023/01/31 20:34:33;;;;;;;15.35;8.10;;;;;;;1.96;93.94;99566.49;1720850;83;21163;-61
2023/01/31 20:37:04;;;;;;;13.72;7.42;;;;;;;1.97;94.00;99569.53;1698878;83;21147;-62
2023/01/31 20:39:33;;;;;;;14.63;7.25;;;;;;;1.93;93.91;99569.48;1720981;82;21219;-64
2023/01/31 20:42:02;;;;;;;17.67;7.83;;;;;;;1.90;93.95;99569.31;1698655;84;21563;-61
2023/01/31 20:44:33;;;;;;;14.50;7.60;;;;;;;1.90;94.03;99565.26;1721235;83;21237;-61
2023/01/31 20:47:03;;;;;;;14.58;7.60;;;;;;;1.91;94.09;99563.41;1622684;87;21219;-62
2023/01/31 20:49:33;;;;;;;14.58;6.83;;;;;;;1.93;94.07;99567.29;1636079;86;21239;-63
2023/01/31 20:52:02;;;;;;;14.07;7.00;;;;;;;1.92;93.99;99567.80;1631662;86;21201;-61
2023/01/31 20:54:32;;;;;;;14.73;6.97;;;;;;;1.90;94.04;99567.11;1631806;86;21153;-63
2023/01/31 20:57:02;;;;;;;14.43;6.45;;;;;;;1.90;94.08;99565.77;1641262;87;21141;-62
2023/01/31 20:59:32;;;;;;;10.63;5.50;;;;;;;1.92;94.10;99565.09;1640738;87;21339;-62
2023/01/31 21:02:02;;;;;;;11.33;4.80;;;;;;;1.92;94.10;99561.04;1640988;87;21136;-62
2023/01/31 21:04:31;;;;;;;11.83;5.10;;;;;;;1.93;94.05;99562.73;1660638;81;21138;-62
2023/01/31 21:07:01;;;;;;;13.13;5.40;;;;;;;1.95;94.01;99568.85;1697317;83;21172;-62
2023/01/31 21:09:32;;;;;;;10.28;4.78;;;;;;;1.96;93.96;99567.84;1723325;83;21614;-61
2023/01/31 21:12:06;;;;;;;12.82;5.85;;;;;;;1.98;93.94;99564.98;1719725;82;21177;-64
2023/01/31 21:14:37;;;;;;;13.50;5.53;;;;;;;2.00;93.86;99572.41;1701284;83;21165;-62
2023/01/31 21:17:06;;;;;;;14.70;5.90;;;;;;;1.99;93.75;99570.22;1701104;83;21174;-62
2023/01/31 21:19:36;;;;;;;11.83;5.83;;;;;;;2.00;93.73;99573.26;1724868;82;21606;-61
2023/01/31 21:22:05;;;;;;;12.43;5.90;;;;;;;2.00;93.52;99576.47;1724902;82;21105;-61
2023/01/31 21:24:35;;;;;;;12.00;5.37;;;;;;;1.99;93.38;99568.86;1724849;83;21196;-60
2023/01/31 21:27:07;;;;;;;8.68;4.35;;;;;;;1.96;93.23;99576.45;1724606;82;21121;-62
2023/01/31 21:29:40;;;;;;;9.00;4.00;;;;;;;1.96;93.20;99577.80;1726449;83;21139;-61
2023/01/31 21:32:09;;;;;;;9.60;4.15;;;;;;;1.95;93.11;99580.13;1731237;83;21159;-60
2023/01/31 21:34:40;;;;;;;8.18;4.30;;;;;;;1.95;93.00;99579.66;1723349;82;21609;-61
2023/01/31 21:37:10;;;;;;;10.45;4.40;;;;;;;1.93;92.92;99577.59;1723830;83;21254;-61
2023/01/31 21:39:39;;;;;;;8.95;4.60;;;;;;;1.91;92.89;99576.91;1723464;83;21120;-62
2023/01/31 21:42:20;;;;;;;9.48;4.50;;;;;;;1.89;92.86;99573.52;1723331;82;21167;-61
2023/01/31 21:44:43;;;;;;;7.65;4.20;;;;;;;1.89;92.82;99580.27;1721800;82;21128;-62
2023/01/31 21:47:13;;;;;;;10.00;4.35;;;;;;;1.88;92.78;99574.02;1723242;83;21599;-60
2023/01/31 21:49:42;;;;;;;12.80;4.47;;;;;;;1.86;92.79;99578.75;1723434;83;21210;-60
2023/01/31 21:52:12;;;;;;;9.95;4.80;;;;;;;1.85;92.79;99579.75;1723226;82;21120;-61
2023/01/31 21:54:42;;;;;;;9.58;4.47;;;;;;;1.87;92.91;99572.84;1723266;82;21128;-60
2023/01/31 21:57:11;;;;;;;9.85;4.40;;;;;;;1.86;92.86;99577.90;1710700;82;21160;-61
2023/01/31 21:59:44;;;;;;;10.58;4.15;;;;;;;1.86;92.86;99577.90;1710724;82;21156;-62
2023/01/31 22:02:14;;;;;;;7.90;4.15;;;;;;;1.86;92.93;99575.20;1710667;82;21133;-62
2023/01/31 22:04:43;;;;;;;7.72;4.17;;;;;;;1.85;92.90;99574.86;1710880;84;21136;-61
